sensor_id;sensor_type;location;lat;lon;timestamp;P1;durP1;ratioP1;P2;durP2;ratioP2
76262;SDS011;65080;50.908;6.916;2023-04-06T00:00:00;11.80;;;7.60;;
76262;SDS011;65080;50.908;6.916;2023-04-06T00:02:28;13.13;;;8.57;;
76262;SDS011;65080;50.908;6.916;2023-04-06T00:04:58;9.90;;;7.97;;
76262;SDS011;65080;50.908;6.916;2023-04-06T00:07:26;11.03;;;7.57;;
76262;SDS011;65080;50.908;6.916;2023-04-06T00:09:56;12.77;;;7.80;;
76262;SDS011;65080;50.908;6.916;2023-04-06T00:12:24;11.07;;;7.70;;
76262;SDS011;65080;50.908;6.916;2023-04-06T00:14:52;12.77;;;8.93;;
76262;SDS011;65080;50.908;6.916;2023-04-06T00:17:20;13.73;;;8.17;;
76262;SDS011;65080;50.908;6.916;2023-04-06T00:19:48;14.93;;;8.40;;
76262;SDS011;65080;50.908;6.916;2023-04-06T00:22:18;11.67;;;7.90;;
76262;SDS011;65080;50.908;6.916;2023-04-06T00:24:46;13.47;;;8.23;;
76262;SDS011;65080;50.908;6.916;2023-04-06T00:27:15;16.07;;;9.77;;
76262;SDS011;65080;50.908;6.916;2023-04-06T00:29:43;12.27;;;8.53;;
76262;SDS011;65080;50.908;6.916;2023-04-06T00:32:11;15.47;;;8.73;;
76262;SDS011;65080;50.908;6.916;2023-04-06T00:34:39;14.67;;;9.07;;
76262;SDS011;65080;50.908;6.916;2023-04-06T00:37:08;11.57;;;8.53;;
76262;SDS011;65080;50.908;6.916;2023-04-06T00:39:37;11.70;;;8.63;;
76262;SDS011;65080;50.908;6.916;2023-04-06T00:42:07;15.10;;;9.17;;
76262;SDS011;65080;50.908;6.916;2023-04-06T00:44:38;11.07;;;8.07;;
76262;SDS011;65080;50.908;6.916;2023-04-06T00:47:06;17.90;;;9.13;;
76262;SDS011;65080;50.908;6.916;2023-04-06T00:49:34;15.17;;;9.10;;
76262;SDS011;65080;50.908;6.916;2023-04-06T00:52:02;15.40;;;9.10;;
76262;SDS011;65080;50.908;6.916;2023-04-06T00:54:31;15.83;;;10.47;;
76262;SDS011;65080;50.908;6.916;2023-04-06T00:57:00;14.83;;;9.20;;
76262;SDS011;65080;50.908;6.916;2023-04-06T00:59:29;12.40;;;8.30;;
76262;SDS011;65080;50.908;6.916;2023-04-06T01:01:57;13.80;;;7.90;;
76262;SDS011;65080;50.908;6.916;2023-04-06T01:04:26;14.00;;;9.10;;
76262;SDS011;65080;50.908;6.916;2023-04-06T01:10:42;13.60;;;8.03;;
76262;SDS011;65080;50.908;6.916;2023-04-06T01:13:11;14.63;;;8.67;;
76262;SDS011;65080;50.908;6.916;2023-04-06T01:15:39;12.60;;;8.30;;
76262;SDS011;65080;50.908;6.916;2023-04-06T01:18:08;13.80;;;7.77;;
76262;SDS011;65080;50.908;6.916;2023-04-06T01:20:37;13.53;;;8.40;;
76262;SDS011;65080;50.908;6.916;2023-04-06T01:23:06;11.63;;;8.60;;
76262;SDS011;65080;50.908;6.916;2023-04-06T01:25:34;14.17;;;8.57;;
76262;SDS011;65080;50.908;6.916;2023-04-06T01:28:02;12.80;;;8.37;;
76262;SDS011;65080;50.908;6.916;2023-04-06T01:30:31;14.60;;;8.93;;
76262;SDS011;65080;50.908;6.916;2023-04-06T01:32:59;13.23;;;9.10;;
76262;SDS011;65080;50.908;6.916;2023-04-06T01:35:28;11.50;;;7.73;;
76262;SDS011;65080;50.908;6.916;2023-04-06T01:37:57;13.80;;;8.40;;
76262;SDS011;65080;50.908;6.916;2023-04-06T01:40:26;12.30;;;8.40;;
76262;SDS011;65080;50.908;6.916;2023-04-06T01:42:55;12.30;;;8.47;;
76262;SDS011;65080;50.908;6.916;2023-04-06T01:45:23;9.33;;;7.50;;
76262;SDS011;65080;50.908;6.916;2023-04-06T01:47:51;10.43;;;8.10;;
76262;SDS011;65080;50.908;6.916;2023-04-06T01:50:20;13.53;;;9.30;;
76262;SDS011;65080;50.908;6.916;2023-04-06T01:52:48;11.20;;;8.03;;
76262;SDS011;65080;50.908;6.916;2023-04-06T01:55:16;13.00;;;8.00;;
76262;SDS011;65080;50.908;6.916;2023-04-06T01:57:45;15.57;;;8.17;;
76262;SDS011;65080;50.908;6.916;2023-04-06T02:00:14;13.60;;;8.90;;
76262;SDS011;65080;50.908;6.916;2023-04-06T02:02:43;11.03;;;7.90;;
76262;SDS011;65080;50.908;6.916;2023-04-06T02:05:11;15.40;;;7.37;;
76262;SDS011;65080;50.908;6.916;2023-04-06T02:07:39;16.90;;;8.97;;
76262;SDS011;65080;50.908;6.916;2023-04-06T02:10:11;9.83;;;7.43;;
76262;SDS011;65080;50.908;6.916;2023-04-06T02:12:39;11.30;;;7.97;;
76262;SDS011;65080;50.908;6.916;2023-04-06T02:15:10;11.40;;;7.90;;
76262;SDS011;65080;50.908;6.916;2023-04-06T02:17:39;10.70;;;7.50;;
76262;SDS011;65080;50.908;6.916;2023-04-06T02:20:08;12.93;;;7.77;;
76262;SDS011;65080;50.908;6.916;2023-04-06T02:22:37;17.87;;;7.50;;
76262;SDS011;65080;50.908;6.916;2023-04-06T02:25:05;10.40;;;7.80;;
76262;SDS011;65080;50.908;6.916;2023-04-06T02:27:34;9.20;;;7.13;;
76262;SDS011;65080;50.908;6.916;2023-04-06T02:30:02;10.57;;;7.97;;
76262;SDS011;65080;50.908;6.916;2023-04-06T02:32:32;10.00;;;7.60;;
76262;SDS011;65080;50.908;6.916;2023-04-06T02:35:00;11.50;;;8.00;;
76262;SDS011;65080;50.908;6.916;2023-04-06T02:37:29;10.70;;;7.67;;
76262;SDS011;65080;50.908;6.916;2023-04-06T02:39:57;11.33;;;7.43;;
76262;SDS011;65080;50.908;6.916;2023-04-06T02:42:25;11.57;;;7.33;;
76262;SDS011;65080;50.908;6.916;2023-04-06T02:44:53;13.80;;;7.20;;
76262;SDS011;65080;50.908;6.916;2023-04-06T02:47:21;10.13;;;6.77;;
76262;SDS011;65080;50.908;6.916;2023-04-06T02:49:52;11.00;;;8.23;;
76262;SDS011;65080;50.908;6.916;2023-04-06T02:52:23;14.27;;;8.07;;
76262;SDS011;65080;50.908;6.916;2023-04-06T02:54:51;11.17;;;6.67;;
76262;SDS011;65080;50.908;6.916;2023-04-06T02:57:19;12.23;;;7.90;;
76262;SDS011;65080;50.908;6.916;2023-04-06T02:59:48;9.07;;;6.43;;
76262;SDS011;65080;50.908;6.916;2023-04-06T03:02:16;9.17;;;7.13;;
76262;SDS011;65080;50.908;6.916;2023-04-06T03:04:44;9.83;;;7.57;;
76262;SDS011;65080;50.908;6.916;2023-04-06T03:07:14;16.63;;;6.93;;
76262;SDS011;65080;50.908;6.916;2023-04-06T03:09:42;11.63;;;7.40;;
76262;SDS011;65080;50.908;6.916;2023-04-06T03:12:10;9.63;;;7.10;;
76262;SDS011;65080;50.908;6.916;2023-04-06T03:14:38;12.00;;;7.77;;
76262;SDS011;65080;50.908;6.916;2023-04-06T03:17:06;17.93;;;7.50;;
76262;SDS011;65080;50.908;6.916;2023-04-06T03:19:34;13.03;;;6.70;;
76262;SDS011;65080;50.908;6.916;2023-04-06T03:22:03;13.40;;;7.87;;
76262;SDS011;65080;50.908;6.916;2023-04-06T03:24:32;12.27;;;7.50;;
76262;SDS011;65080;50.908;6.916;2023-04-06T03:27:01;12.60;;;7.37;;
76262;SDS011;65080;50.908;6.916;2023-04-06T03:29:29;11.07;;;6.97;;
76262;SDS011;65080;50.908;6.916;2023-04-06T03:31:57;13.87;;;7.07;;
76262;SDS011;65080;50.908;6.916;2023-04-06T03:34:25;13.60;;;7.60;;
76262;SDS011;65080;50.908;6.916;2023-04-06T03:36:54;10.63;;;7.07;;
76262;SDS011;65080;50.908;6.916;2023-04-06T03:39:36;9.20;;;6.40;;
76262;SDS011;65080;50.908;6.916;2023-04-06T03:42:04;12.83;;;6.93;;
76262;SDS011;65080;50.908;6.916;2023-04-06T03:44:32;9.90;;;6.73;;
76262;SDS011;65080;50.908;6.916;2023-04-06T03:47:01;9.57;;;7.03;;
76262;SDS011;65080;50.908;6.916;2023-04-06T03:49:29;9.83;;;6.83;;
76262;SDS011;65080;50.908;6.916;2023-04-06T03:51:57;9.73;;;6.90;;
76262;SDS011;65080;50.908;6.916;2023-04-06T03:54:25;8.50;;;6.90;;
76262;SDS011;65080;50.908;6.916;2023-04-06T03:56:55;9.70;;;6.40;;
76262;SDS011;65080;50.908;6.916;2023-04-06T03:59:23;11.43;;;6.30;;
76262;SDS011;65080;50.908;6.916;2023-04-06T04:01:51;10.80;;;6.43;;
76262;SDS011;65080;50.908;6.916;2023-04-06T04:04:20;8.50;;;6.73;;
76262;SDS011;65080;50.908;6.916;2023-04-06T04:06:48;15.40;;;7.17;;
76262;SDS011;65080;50.908;6.916;2023-04-06T04:09:16;10.73;;;7.10;;
76262;SDS011;65080;50.908;6.916;2023-04-06T04:11:44;10.17;;;7.20;;
76262;SDS011;65080;50.908;6.916;2023-04-06T04:14:14;9.00;;;6.23;;
76262;SDS011;65080;50.908;6.916;2023-04-06T04:16:42;7.90;;;6.27;;
76262;SDS011;65080;50.908;6.916;2023-04-06T04:19:10;9.83;;;6.10;;
76262;SDS011;65080;50.908;6.916;2023-04-06T04:21:42;8.90;;;6.60;;
76262;SDS011;65080;50.908;6.916;2023-04-06T04:24:11;9.23;;;6.20;;
76262;SDS011;65080;50.908;6.916;2023-04-06T04:26:39;10.63;;;6.27;;
76262;SDS011;65080;50.908;6.916;2023-04-06T04:29:08;9.20;;;6.53;;
76262;SDS011;65080;50.908;6.916;2023-04-06T04:31:38;9.03;;;6.27;;
76262;SDS011;65080;50.908;6.916;2023-04-06T04:34:06;9.93;;;7.00;;
76262;SDS011;65080;50.908;6.916;2023-04-06T04:36:34;9.20;;;6.70;;
76262;SDS011;65080;50.908;6.916;2023-04-06T04:39:02;8.37;;;6.13;;
76262;SDS011;65080;50.908;6.916;2023-04-06T04:41:30;9.10;;;6.60;;
76262;SDS011;65080;50.908;6.916;2023-04-06T04:43:59;8.20;;;6.20;;
76262;SDS011;65080;50.908;6.916;2023-04-06T04:46:27;8.40;;;6.27;;
76262;SDS011;65080;50.908;6.916;2023-04-06T04:48:56;9.50;;;6.40;;
76262;SDS011;65080;50.908;6.916;2023-04-06T04:51:24;7.53;;;6.30;;
76262;SDS011;65080;50.908;6.916;2023-04-06T04:53:53;12.23;;;6.50;;
76262;SDS011;65080;50.908;6.916;2023-04-06T04:56:21;10.27;;;6.47;;
76262;SDS011;65080;50.908;6.916;2023-04-06T04:58:49;7.50;;;6.33;;
76262;SDS011;65080;50.908;6.916;2023-04-06T05:01:17;12.93;;;6.57;;
76262;SDS011;65080;50.908;6.916;2023-04-06T05:03:46;10.90;;;6.70;;
76262;SDS011;65080;50.908;6.916;2023-04-06T05:06:15;10.33;;;7.80;;
76262;SDS011;65080;50.908;6.916;2023-04-06T05:08:44;12.60;;;6.70;;
76262;SDS011;65080;50.908;6.916;2023-04-06T05:11:12;10.13;;;7.40;;
76262;SDS011;65080;50.908;6.916;2023-04-06T05:13:41;9.37;;;6.83;;
76262;SDS011;65080;50.908;6.916;2023-04-06T05:16:09;10.77;;;6.53;;
76262;SDS011;65080;50.908;6.916;2023-04-06T05:18:37;10.73;;;7.43;;
76262;SDS011;65080;50.908;6.916;2023-04-06T05:21:06;9.17;;;7.20;;
76262;SDS011;65080;50.908;6.916;2023-04-06T05:23:35;9.67;;;6.87;;
76262;SDS011;65080;50.908;6.916;2023-04-06T05:26:03;10.90;;;6.80;;
76262;SDS011;65080;50.908;6.916;2023-04-06T05:28:32;9.63;;;6.50;;
76262;SDS011;65080;50.908;6.916;2023-04-06T05:31:00;12.80;;;7.87;;
76262;SDS011;65080;50.908;6.916;2023-04-06T05:33:29;15.07;;;6.77;;
76262;SDS011;65080;50.908;6.916;2023-04-06T05:35:57;10.37;;;7.40;;
76262;SDS011;65080;50.908;6.916;2023-04-06T05:38:27;10.43;;;7.60;;
76262;SDS011;65080;50.908;6.916;2023-04-06T05:40:56;8.87;;;6.67;;
76262;SDS011;65080;50.908;6.916;2023-04-06T05:43:25;11.50;;;6.73;;
76262;SDS011;65080;50.908;6.916;2023-04-06T05:45:53;8.40;;;6.40;;
76262;SDS011;65080;50.908;6.916;2023-04-06T05:48:21;9.40;;;6.40;;
76262;SDS011;65080;50.908;6.916;2023-04-06T05:50:49;8.87;;;6.30;;
76262;SDS011;65080;50.908;6.916;2023-04-06T05:53:18;10.10;;;6.10;;
76262;SDS011;65080;50.908;6.916;2023-04-06T05:55:47;11.80;;;7.00;;
76262;SDS011;65080;50.908;6.916;2023-04-06T05:58:17;10.50;;;6.30;;
76262;SDS011;65080;50.908;6.916;2023-04-06T06:00:45;9.70;;;6.67;;
76262;SDS011;65080;50.908;6.916;2023-04-06T06:03:13;8.77;;;7.10;;
76262;SDS011;65080;50.908;6.916;2023-04-06T06:05:42;8.60;;;6.20;;
76262;SDS011;65080;50.908;6.916;2023-04-06T06:08:10;11.40;;;6.60;;
76262;SDS011;65080;50.908;6.916;2023-04-06T06:10:39;9.40;;;6.83;;
76262;SDS011;65080;50.908;6.916;2023-04-06T06:13:08;12.93;;;7.23;;
76262;SDS011;65080;50.908;6.916;2023-04-06T06:15:40;13.77;;;6.77;;
76262;SDS011;65080;50.908;6.916;2023-04-06T06:18:08;12.93;;;7.10;;
76262;SDS011;65080;50.908;6.916;2023-04-06T06:20:37;7.57;;;5.90;;
76262;SDS011;65080;50.908;6.916;2023-04-06T06:23:05;9.13;;;6.83;;
76262;SDS011;65080;50.908;6.916;2023-04-06T06:25:33;9.00;;;6.80;;
76262;SDS011;65080;50.908;6.916;2023-04-06T06:28:02;13.07;;;7.10;;
76262;SDS011;65080;50.908;6.916;2023-04-06T06:30:30;8.97;;;6.13;;
76262;SDS011;65080;50.908;6.916;2023-04-06T06:33:00;9.50;;;7.00;;
76262;SDS011;65080;50.908;6.916;2023-04-06T06:35:28;12.30;;;6.60;;
76262;SDS011;65080;50.908;6.916;2023-04-06T06:37:56;9.90;;;6.23;;
76262;SDS011;65080;50.908;6.916;2023-04-06T06:40:24;11.00;;;7.20;;
76262;SDS011;65080;50.908;6.916;2023-04-06T06:42:53;12.03;;;7.20;;
76262;SDS011;65080;50.908;6.916;2023-04-06T06:45:21;10.87;;;6.90;;
76262;SDS011;65080;50.908;6.916;2023-04-06T06:47:51;9.83;;;7.53;;
76262;SDS011;65080;50.908;6.916;2023-04-06T06:50:22;9.37;;;6.70;;
76262;SDS011;65080;50.908;6.916;2023-04-06T06:52:51;13.50;;;8.07;;
76262;SDS011;65080;50.908;6.916;2023-04-06T06:55:19;11.13;;;6.83;;
76262;SDS011;65080;50.908;6.916;2023-04-06T06:57:47;11.40;;;6.87;;
76262;SDS011;65080;50.908;6.916;2023-04-06T07:00:15;9.70;;;7.33;;
76262;SDS011;65080;50.908;6.916;2023-04-06T07:02:44;11.73;;;7.00;;
76262;SDS011;65080;50.908;6.916;2023-04-06T07:05:12;10.63;;;7.10;;
76262;SDS011;65080;50.908;6.916;2023-04-06T07:07:55;13.83;;;7.73;;
76262;SDS011;65080;50.908;6.916;2023-04-06T07:10:23;12.30;;;8.17;;
76262;SDS011;65080;50.908;6.916;2023-04-06T07:12:52;9.57;;;7.40;;
76262;SDS011;65080;50.908;6.916;2023-04-06T07:15:21;9.80;;;8.23;;
76262;SDS011;65080;50.908;6.916;2023-04-06T07:17:49;9.40;;;7.30;;
76262;SDS011;65080;50.908;6.916;2023-04-06T07:20:18;14.60;;;7.63;;
76262;SDS011;65080;50.908;6.916;2023-04-06T07:22:47;10.03;;;6.83;;
76262;SDS011;65080;50.908;6.916;2023-04-06T07:25:17;11.73;;;7.57;;
76262;SDS011;65080;50.908;6.916;2023-04-06T07:27:45;10.33;;;7.57;;
76262;SDS011;65080;50.908;6.916;2023-04-06T07:30:14;10.13;;;7.50;;
76262;SDS011;65080;50.908;6.916;2023-04-06T07:32:44;15.87;;;8.60;;
76262;SDS011;65080;50.908;6.916;2023-04-06T07:35:12;12.70;;;8.80;;
76262;SDS011;65080;50.908;6.916;2023-04-06T07:37:40;10.10;;;7.83;;
76262;SDS011;65080;50.908;6.916;2023-04-06T07:40:09;12.60;;;8.77;;
76262;SDS011;65080;50.908;6.916;2023-04-06T07:42:39;10.20;;;7.63;;
76262;SDS011;65080;50.908;6.916;2023-04-06T07:45:07;11.50;;;7.47;;
76262;SDS011;65080;50.908;6.916;2023-04-06T07:47:36;11.97;;;8.33;;
76262;SDS011;65080;50.908;6.916;2023-04-06T07:50:05;13.10;;;7.40;;
76262;SDS011;65080;50.908;6.916;2023-04-06T07:52:33;9.53;;;7.30;;
76262;SDS011;65080;50.908;6.916;2023-04-06T07:55:04;14.50;;;7.97;;
76262;SDS011;65080;50.908;6.916;2023-04-06T07:57:32;10.13;;;8.13;;
76262;SDS011;65080;50.908;6.916;2023-04-06T08:00:03;11.43;;;7.80;;
76262;SDS011;65080;50.908;6.916;2023-04-06T08:02:32;11.23;;;8.40;;
76262;SDS011;65080;50.908;6.916;2023-04-06T08:05:00;11.93;;;8.10;;
76262;SDS011;65080;50.908;6.916;2023-04-06T08:07:28;15.73;;;8.17;;
76262;SDS011;65080;50.908;6.916;2023-04-06T08:09:57;16.03;;;8.37;;
76262;SDS011;65080;50.908;6.916;2023-04-06T08:12:25;13.97;;;7.60;;
76262;SDS011;65080;50.908;6.916;2023-04-06T08:14:53;12.63;;;8.20;;
76262;SDS011;65080;50.908;6.916;2023-04-06T08:17:24;13.03;;;7.87;;
76262;SDS011;65080;50.908;6.916;2023-04-06T08:19:55;11.30;;;8.20;;
76262;SDS011;65080;50.908;6.916;2023-04-06T08:22:23;11.07;;;8.40;;
76262;SDS011;65080;50.908;6.916;2023-04-06T08:24:52;16.30;;;9.13;;
76262;SDS011;65080;50.908;6.916;2023-04-06T08:27:20;13.23;;;8.67;;
76262;SDS011;65080;50.908;6.916;2023-04-06T08:29:49;9.80;;;7.70;;
76262;SDS011;65080;50.908;6.916;2023-04-06T08:32:17;13.73;;;8.83;;
76262;SDS011;65080;50.908;6.916;2023-04-06T08:34:47;9.53;;;8.03;;
76262;SDS011;65080;50.908;6.916;2023-04-06T08:37:15;14.90;;;8.80;;
76262;SDS011;65080;50.908;6.916;2023-04-06T08:39:43;11.90;;;8.67;;
76262;SDS011;65080;50.908;6.916;2023-04-06T08:42:12;10.70;;;7.80;;
76262;SDS011;65080;50.908;6.916;2023-04-06T08:44:47;12.00;;;8.77;;
76262;SDS011;65080;50.908;6.916;2023-04-06T08:47:17;19.30;;;9.37;;
76262;SDS011;65080;50.908;6.916;2023-04-06T08:49:51;14.30;;;7.70;;
76262;SDS011;65080;50.908;6.916;2023-04-06T08:52:21;14.47;;;8.50;;
76262;SDS011;65080;50.908;6.916;2023-04-06T08:54:50;15.73;;;8.07;;
76262;SDS011;65080;50.908;6.916;2023-04-06T08:57:18;15.80;;;8.53;;
76262;SDS011;65080;50.908;6.916;2023-04-06T08:59:47;15.20;;;8.87;;
76262;SDS011;65080;50.908;6.916;2023-04-06T09:02:17;17.33;;;8.73;;
76262;SDS011;65080;50.908;6.916;2023-04-06T09:04:47;15.57;;;9.77;;
76262;SDS011;65080;50.908;6.916;2023-04-06T09:07:18;12.20;;;8.67;;
76262;SDS011;65080;50.908;6.916;2023-04-06T09:09:46;16.30;;;8.83;;
76262;SDS011;65080;50.908;6.916;2023-04-06T09:12:24;13.37;;;9.77;;
76262;SDS011;65080;50.908;6.916;2023-04-06T09:14:54;16.00;;;8.90;;
76262;SDS011;65080;50.908;6.916;2023-04-06T09:17:23;15.80;;;8.90;;
76262;SDS011;65080;50.908;6.916;2023-04-06T09:19:52;15.10;;;9.27;;
76262;SDS011;65080;50.908;6.916;2023-04-06T09:22:23;16.47;;;9.10;;
76262;SDS011;65080;50.908;6.916;2023-04-06T09:24:53;14.37;;;9.43;;
76262;SDS011;65080;50.908;6.916;2023-04-06T09:27:30;14.60;;;9.40;;
76262;SDS011;65080;50.908;6.916;2023-04-06T09:30:03;12.73;;;8.77;;
76262;SDS011;65080;50.908;6.916;2023-04-06T09:32:32;11.40;;;8.13;;
76262;SDS011;65080;50.908;6.916;2023-04-06T09:35:11;12.13;;;8.60;;
76262;SDS011;65080;50.908;6.916;2023-04-06T09:37:41;12.43;;;9.00;;
76262;SDS011;65080;50.908;6.916;2023-04-06T09:40:10;15.87;;;9.17;;
76262;SDS011;65080;50.908;6.916;2023-04-06T09:42:40;11.13;;;8.43;;
76262;SDS011;65080;50.908;6.916;2023-04-06T09:45:09;16.73;;;8.87;;
76262;SDS011;65080;50.908;6.916;2023-04-06T09:47:38;13.67;;;9.27;;
76262;SDS011;65080;50.908;6.916;2023-04-06T09:50:08;15.30;;;9.77;;
76262;SDS011;65080;50.908;6.916;2023-04-06T09:52:40;13.17;;;8.70;;
76262;SDS011;65080;50.908;6.916;2023-04-06T09:55:16;18.97;;;11.10;;
76262;SDS011;65080;50.908;6.916;2023-04-06T09:57:49;14.60;;;9.60;;
76262;SDS011;65080;50.908;6.916;2023-04-06T10:00:21;13.10;;;9.50;;
76262;SDS011;65080;50.908;6.916;2023-04-06T10:02:50;15.63;;;9.53;;
76262;SDS011;65080;50.908;6.916;2023-04-06T10:05:26;13.77;;;8.90;;
76262;SDS011;65080;50.908;6.916;2023-04-06T10:08:02;15.37;;;9.37;;
76262;SDS011;65080;50.908;6.916;2023-04-06T10:10:34;15.03;;;8.83;;
76262;SDS011;65080;50.908;6.916;2023-04-06T10:13:03;12.43;;;9.50;;
76262;SDS011;65080;50.908;6.916;2023-04-06T10:15:34;13.97;;;9.07;;
76262;SDS011;65080;50.908;6.916;2023-04-06T10:18:05;12.70;;;8.40;;
76262;SDS011;65080;50.908;6.916;2023-04-06T10:20:35;14.47;;;9.60;;
76262;SDS011;65080;50.908;6.916;2023-04-06T10:23:11;13.80;;;9.67;;
76262;SDS011;65080;50.908;6.916;2023-04-06T10:25:51;20.00;;;10.87;;
76262;SDS011;65080;50.908;6.916;2023-04-06T10:28:20;16.63;;;9.83;;
76262;SDS011;65080;50.908;6.916;2023-04-06T10:30:49;18.73;;;10.33;;
76262;SDS011;65080;50.908;6.916;2023-04-06T10:33:25;22.10;;;9.87;;
76262;SDS011;65080;50.908;6.916;2023-04-06T10:35:54;16.33;;;10.60;;
76262;SDS011;65080;50.908;6.916;2023-04-06T10:38:34;17.50;;;9.20;;
76262;SDS011;65080;50.908;6.916;2023-04-06T10:41:07;15.13;;;9.93;;
76262;SDS011;65080;50.908;6.916;2023-04-06T10:43:37;16.00;;;9.97;;
76262;SDS011;65080;50.908;6.916;2023-04-06T10:46:07;22.77;;;9.80;;
76262;SDS011;65080;50.908;6.916;2023-04-06T10:48:37;16.30;;;9.73;;
76262;SDS011;65080;50.908;6.916;2023-04-06T10:51:08;18.47;;;9.43;;
76262;SDS011;65080;50.908;6.916;2023-04-06T10:53:39;13.90;;;9.27;;
76262;SDS011;65080;50.908;6.916;2023-04-06T10:56:10;18.87;;;9.97;;
76262;SDS011;65080;50.908;6.916;2023-04-06T10:58:44;16.13;;;9.60;;
76262;SDS011;65080;50.908;6.916;2023-04-06T11:01:14;20.37;;;10.57;;
76262;SDS011;65080;50.908;6.916;2023-04-06T11:03:44;18.03;;;10.10;;
76262;SDS011;65080;50.908;6.916;2023-04-06T11:06:17;17.70;;;10.23;;
76262;SDS011;65080;50.908;6.916;2023-04-06T11:08:49;14.73;;;9.73;;
76262;SDS011;65080;50.908;6.916;2023-04-06T11:11:19;18.03;;;10.97;;
76262;SDS011;65080;50.908;6.916;2023-04-06T11:13:49;17.50;;;9.80;;
76262;SDS011;65080;50.908;6.916;2023-04-06T11:16:19;17.67;;;11.00;;
76262;SDS011;65080;50.908;6.916;2023-04-06T11:18:49;16.90;;;10.63;;
76262;SDS011;65080;50.908;6.916;2023-04-06T11:21:18;18.80;;;10.20;;
76262;SDS011;65080;50.908;6.916;2023-04-06T11:23:50;14.13;;;8.80;;
76262;SDS011;65080;50.908;6.916;2023-04-06T11:26:18;19.67;;;10.00;;
76262;SDS011;65080;50.908;6.916;2023-04-06T11:28:47;20.27;;;10.40;;
76262;SDS011;65080;50.908;6.916;2023-04-06T11:31:16;17.77;;;10.37;;
76262;SDS011;65080;50.908;6.916;2023-04-06T11:33:45;18.30;;;9.77;;
76262;SDS011;65080;50.908;6.916;2023-04-06T11:36:14;15.50;;;9.83;;
76262;SDS011;65080;50.908;6.916;2023-04-06T11:38:43;18.63;;;9.17;;
76262;SDS011;65080;50.908;6.916;2023-04-06T11:41:13;14.10;;;10.07;;
76262;SDS011;65080;50.908;6.916;2023-04-06T11:43:45;15.20;;;9.83;;
76262;SDS011;65080;50.908;6.916;2023-04-06T11:46:17;15.47;;;9.07;;
76262;SDS011;65080;50.908;6.916;2023-04-06T11:48:47;16.70;;;9.67;;
76262;SDS011;65080;50.908;6.916;2023-04-06T11:51:21;16.37;;;9.63;;
76262;SDS011;65080;50.908;6.916;2023-04-06T11:53:51;15.23;;;9.67;;
76262;SDS011;65080;50.908;6.916;2023-04-06T11:56:28;21.30;;;9.57;;
76262;SDS011;65080;50.908;6.916;2023-04-06T11:58:57;17.13;;;9.60;;
76262;SDS011;65080;50.908;6.916;2023-04-06T12:01:26;18.17;;;10.50;;
76262;SDS011;65080;50.908;6.916;2023-04-06T12:03:54;16.20;;;9.57;;
76262;SDS011;65080;50.908;6.916;2023-04-06T12:06:23;17.40;;;11.07;;
76262;SDS011;65080;50.908;6.916;2023-04-06T12:08:52;22.53;;;12.57;;
76262;SDS011;65080;50.908;6.916;2023-04-06T12:11:20;14.73;;;9.23;;
76262;SDS011;65080;50.908;6.916;2023-04-06T12:13:50;12.27;;;8.07;;
76262;SDS011;65080;50.908;6.916;2023-04-06T12:16:18;14.63;;;8.70;;
76262;SDS011;65080;50.908;6.916;2023-04-06T12:18:47;11.23;;;7.07;;
76262;SDS011;65080;50.908;6.916;2023-04-06T12:21:15;14.70;;;9.50;;
76262;SDS011;65080;50.908;6.916;2023-04-06T12:23:43;13.40;;;9.30;;
76262;SDS011;65080;50.908;6.916;2023-04-06T12:26:12;12.00;;;8.53;;
76262;SDS011;65080;50.908;6.916;2023-04-06T12:28:40;13.10;;;8.03;;
76262;SDS011;65080;50.908;6.916;2023-04-06T12:31:15;14.70;;;8.97;;
76262;SDS011;65080;50.908;6.916;2023-04-06T12:33:45;15.80;;;8.40;;
76262;SDS011;65080;50.908;6.916;2023-04-06T12:36:15;12.03;;;8.20;;
76262;SDS011;65080;50.908;6.916;2023-04-06T12:38:46;13.43;;;8.23;;
76262;SDS011;65080;50.908;6.916;2023-04-06T12:41:15;12.00;;;8.40;;
76262;SDS011;65080;50.908;6.916;2023-04-06T12:43:44;10.83;;;7.23;;
76262;SDS011;65080;50.908;6.916;2023-04-06T12:46:12;9.20;;;6.50;;
76262;SDS011;65080;50.908;6.916;2023-04-06T12:48:42;12.73;;;7.53;;
76262;SDS011;65080;50.908;6.916;2023-04-06T12:51:10;15.30;;;7.63;;
76262;SDS011;65080;50.908;6.916;2023-04-06T12:53:38;12.73;;;7.30;;
76262;SDS011;65080;50.908;6.916;2023-04-06T12:56:11;9.70;;;7.27;;
76262;SDS011;65080;50.908;6.916;2023-04-06T12:58:40;14.40;;;7.20;;
76262;SDS011;65080;50.908;6.916;2023-04-06T13:01:09;12.40;;;6.80;;
76262;SDS011;65080;50.908;6.916;2023-04-06T13:03:39;12.50;;;7.00;;
76262;SDS011;65080;50.908;6.916;2023-04-06T13:06:09;10.03;;;6.60;;
76262;SDS011;65080;50.908;6.916;2023-04-06T13:08:39;10.97;;;7.00;;
76262;SDS011;65080;50.908;6.916;2023-04-06T13:11:08;9.40;;;7.03;;
76262;SDS011;65080;50.908;6.916;2023-04-06T13:13:36;11.70;;;7.83;;
76262;SDS011;65080;50.908;6.916;2023-04-06T13:16:06;10.60;;;7.10;;
76262;SDS011;65080;50.908;6.916;2023-04-06T13:18:36;12.17;;;7.70;;
76262;SDS011;65080;50.908;6.916;2023-04-06T13:21:07;11.80;;;6.93;;
76262;SDS011;65080;50.908;6.916;2023-04-06T13:23:35;10.40;;;7.07;;
76262;SDS011;65080;50.908;6.916;2023-04-06T13:26:05;10.27;;;7.10;;
76262;SDS011;65080;50.908;6.916;2023-04-06T13:28:35;9.63;;;6.37;;
76262;SDS011;65080;50.908;6.916;2023-04-06T13:31:05;12.27;;;7.03;;
76262;SDS011;65080;50.908;6.916;2023-04-06T13:33:34;11.60;;;6.80;;
76262;SDS011;65080;50.908;6.916;2023-04-06T13:36:03;15.43;;;7.40;;
76262;SDS011;65080;50.908;6.916;2023-04-06T13:38:34;14.70;;;6.93;;
76262;SDS011;65080;50.908;6.916;2023-04-06T13:41:05;11.13;;;6.90;;
76262;SDS011;65080;50.908;6.916;2023-04-06T13:43:33;12.50;;;6.90;;
76262;SDS011;65080;50.908;6.916;2023-04-06T13:46:01;10.57;;;7.00;;
76262;SDS011;65080;50.908;6.916;2023-04-06T13:48:30;10.90;;;6.90;;
76262;SDS011;65080;50.908;6.916;2023-04-06T13:50:58;10.23;;;6.47;;
76262;SDS011;65080;50.908;6.916;2023-04-06T13:53:37;10.80;;;6.67;;
76262;SDS011;65080;50.908;6.916;2023-04-06T13:56:07;10.53;;;6.00;;
76262;SDS011;65080;50.908;6.916;2023-04-06T13:58:35;11.60;;;5.97;;
76262;SDS011;65080;50.908;6.916;2023-04-06T14:01:04;10.30;;;7.00;;
76262;SDS011;65080;50.908;6.916;2023-04-06T14:03:34;10.93;;;7.10;;
76262;SDS011;65080;50.908;6.916;2023-04-06T14:06:09;12.83;;;6.73;;
76262;SDS011;65080;50.908;6.916;2023-04-06T14:08:57;10.20;;;6.80;;
76262;SDS011;65080;50.908;6.916;2023-04-06T14:11:25;9.63;;;6.50;;
76262;SDS011;65080;50.908;6.916;2023-04-06T14:13:53;8.00;;;5.73;;
76262;SDS011;65080;50.908;6.916;2023-04-06T14:16:24;11.30;;;6.10;;
76262;SDS011;65080;50.908;6.916;2023-04-06T14:18:53;10.33;;;6.43;;
76262;SDS011;65080;50.908;6.916;2023-04-06T14:21:21;9.87;;;6.60;;
76262;SDS011;65080;50.908;6.916;2023-04-06T14:23:49;8.60;;;6.07;;
76262;SDS011;65080;50.908;6.916;2023-04-06T14:26:20;8.53;;;6.20;;
76262;SDS011;65080;50.908;6.916;2023-04-06T14:28:49;10.43;;;5.67;;
76262;SDS011;65080;50.908;6.916;2023-04-06T14:31:18;10.60;;;5.47;;
76262;SDS011;65080;50.908;6.916;2023-04-06T14:33:46;7.60;;;5.40;;
76262;SDS011;65080;50.908;6.916;2023-04-06T14:36:15;6.50;;;5.20;;
76262;SDS011;65080;50.908;6.916;2023-04-06T14:38:44;5.93;;;4.53;;
76262;SDS011;65080;50.908;6.916;2023-04-06T14:41:17;7.03;;;4.83;;
76262;SDS011;65080;50.908;6.916;2023-04-06T14:43:47;7.27;;;4.90;;
76262;SDS011;65080;50.908;6.916;2023-04-06T14:46:15;6.07;;;4.10;;
76262;SDS011;65080;50.908;6.916;2023-04-06T14:48:44;6.47;;;4.93;;
76262;SDS011;65080;50.908;6.916;2023-04-06T14:51:13;8.27;;;4.97;;